createdAt,value
2022-09-17T00:01:14.921Z,1.61
2022-09-17T00:21:20.773Z,1.68
2022-09-17T00:41:26.594Z,2.03
2022-09-17T01:01:32.348Z,2.12
2022-09-17T01:21:38.120Z,1.87
2022-09-17T01:41:43.885Z,1.92
2022-09-17T02:01:49.661Z,1.77
2022-09-17T02:21:55.494Z,1.61
2022-09-17T02:42:01.333Z,1.52
2022-09-17T03:02:07.389Z,2.67
2022-09-17T03:22:13.258Z,3.17
2022-09-17T04:02:28.770Z,4.61
2022-09-17T04:22:34.397Z,3.92
2022-09-17T04:42:40.157Z,5.43
2022-09-17T05:02:46.152Z,3.91
2022-09-17T05:22:56.963Z,4.62
2022-09-17T05:42:52.875Z,3.45
2022-09-17T06:02:58.651Z,3.10
2022-09-17T06:23:04.481Z,3.38
2022-09-17T06:43:10.292Z,3.27
2022-09-17T07:03:19.994Z,2.27
2022-09-17T07:23:21.364Z,3.43
2022-09-17T07:43:27.103Z,2.04
2022-09-17T08:03:32.972Z,1.91
2022-09-17T08:23:38.681Z,2.67
2022-09-17T08:43:44.435Z,2.80
2022-09-17T09:03:50.181Z,0.94
2022-09-17T09:23:55.951Z,1.41
2022-09-17T09:44:04.397Z,2.35
2022-09-17T10:04:07.023Z,2.15
2022-09-17T10:24:12.792Z,2.53
2022-09-17T10:44:18.506Z,3.36
2022-09-17T11:04:24.333Z,3.80
2022-09-17T11:24:30.038Z,3.97
2022-09-17T11:44:35.778Z,4.15
2022-09-17T12:04:41.525Z,4.38
2022-09-17T12:24:47.738Z,4.00
2022-09-17T12:44:54.056Z,3.83
2022-09-17T13:05:02.028Z,2.96
2022-09-17T13:25:05.578Z,1.46
2022-09-17T13:45:14.568Z,2.65
2022-09-17T14:05:20.805Z,0.88
2022-09-17T14:25:26.998Z,1.46
2022-09-17T14:45:33.231Z,1.49
2022-09-17T15:05:39.500Z,1.59
2022-09-17T15:25:45.779Z,1.73
2022-09-17T15:45:52.001Z,2.01
2022-09-17T16:06:00.431Z,2.22
2022-09-17T16:26:03.106Z,1.96
2022-09-17T16:46:08.955Z,2.13
2022-09-17T17:06:14.688Z,1.89
2022-09-17T17:26:20.381Z,1.31
2022-09-17T17:46:26.220Z,2.25
2022-09-17T18:06:31.969Z,1.88
2022-09-17T18:26:37.680Z,2.87
2022-09-17T18:46:43.515Z,3.90
2022-09-17T19:06:49.208Z,1.40
2022-09-17T19:26:54.957Z,1.59
2022-09-17T19:47:00.738Z,1.46
2022-09-17T20:07:06.594Z,1.30
2022-09-17T20:27:12.328Z,1.14
2022-09-17T20:47:18.158Z,2.05
2022-09-17T21:07:24.020Z,1.08
2022-09-17T21:27:29.743Z,1.95
2022-09-17T21:47:35.531Z,2.75
2022-09-17T22:07:42.240Z,1.88
2022-09-17T22:28:10.073Z,2.15
2022-09-17T22:47:53.322Z,1.22
2022-09-17T23:07:59.127Z,1.09
2022-09-17T23:28:05.014Z,1.74
2022-09-17T23:48:10.812Z,2.97
